createdAt,value
2022-12-22T00:00:14.728Z,14.45
2022-12-22T00:03:00.752Z,13.52
2022-12-22T00:05:46.845Z,14.40
2022-12-22T00:08:32.493Z,13.40
2022-12-22T00:11:20.160Z,13.32
2022-12-22T00:14:06.125Z,14.38
2022-12-22T00:16:54.899Z,13.55
2022-12-22T00:19:41.488Z,16.40
2022-12-22T00:22:40.283Z,12.68
2022-12-22T00:25:38.332Z,12.82
2022-12-22T00:28:33.297Z,12.73
2022-12-22T00:31:19.121Z,12.70
2022-12-22T00:34:05.007Z,12.73
2022-12-22T00:36:50.640Z,13.25
2022-12-22T00:39:36.340Z,12.38
2022-12-22T00:42:22.116Z,11.80
2022-12-22T00:45:07.820Z,12.30
2022-12-22T00:47:53.982Z,11.85
2022-12-22T00:50:46.640Z,12.82
2022-12-22T00:53:32.915Z,11.70
2022-12-22T00:56:18.922Z,11.63
2022-12-22T00:59:04.625Z,11.77
2022-12-22T01:01:50.628Z,11.77
2022-12-22T01:04:36.293Z,12.07
2022-12-22T01:07:22.691Z,13.18
2022-12-22T01:10:11.485Z,11.45
2022-12-22T01:12:58.650Z,12.15
2022-12-22T01:15:46.467Z,10.50
2022-12-22T01:18:33.206Z,11.60
2022-12-22T01:21:19.492Z,12.98
2022-12-22T01:24:05.588Z,11.25
2022-12-22T01:26:51.236Z,10.93
2022-12-22T01:29:37.103Z,10.63
2022-12-22T01:32:22.853Z,11.30
2022-12-22T01:35:08.804Z,12.07
2022-12-22T01:37:54.843Z,12.90
2022-12-22T01:40:43.783Z,11.65
2022-12-22T01:43:46.949Z,11.60
2022-12-22T01:46:44.634Z,12.32
2022-12-22T01:49:53.066Z,10.60
2022-12-22T01:52:43.381Z,9.98
2022-12-22T01:55:33.573Z,11.77
2022-12-22T01:58:19.732Z,11.20
2022-12-22T02:01:06.511Z,10.60
2022-12-22T02:03:52.487Z,9.77
2022-12-22T02:06:59.987Z,9.65
2022-12-22T02:10:04.340Z,10.55
2022-12-22T02:13:15.117Z,11.32
2022-12-22T02:16:09.135Z,9.05
2022-12-22T02:19:03.856Z,10.65
2022-12-22T02:22:12.894Z,9.43
2022-12-22T02:25:09.154Z,9.48
2022-12-22T02:27:58.340Z,9.43
2022-12-22T02:30:47.097Z,9.50
2022-12-22T02:33:32.954Z,9.27
2022-12-22T02:36:48.979Z,10.15
2022-12-22T02:39:59.602Z,9.20
2022-12-22T02:42:59.391Z,9.48
2022-12-22T02:45:54.363Z,9.10
2022-12-22T02:48:45.917Z,8.60
2022-12-22T02:51:39.839Z,9.00
2022-12-22T02:54:27.183Z,8.95
2022-12-22T02:57:13.817Z,9.40
2022-12-22T02:59:59.719Z,8.98
2022-12-22T03:02:45.763Z,9.15
2022-12-22T03:05:31.976Z,9.18
2022-12-22T03:08:17.563Z,9.40
2022-12-22T03:11:03.385Z,9.20
2022-12-22T03:13:49.253Z,9.80
2022-12-22T03:16:34.874Z,9.13
2022-12-22T03:19:20.956Z,9.25
2022-12-22T03:22:06.714Z,9.50
2022-12-22T03:24:52.384Z,9.18
2022-12-22T03:27:19.724Z,8.52
2022-12-22T03:29:46.987Z,8.75
2022-12-22T03:32:14.283Z,8.98
2022-12-22T03:34:41.521Z,9.63
2022-12-22T03:37:08.841Z,9.15
2022-12-22T03:39:36.586Z,9.73
2022-12-22T03:42:22.351Z,9.60
2022-12-22T03:45:08.167Z,9.75
2022-12-22T03:47:35.457Z,10.30
2022-12-22T03:50:02.756Z,9.68
2022-12-22T03:52:29.984Z,9.73
2022-12-22T03:54:57.302Z,10.95
2022-12-22T03:57:24.561Z,11.40
2022-12-22T03:59:51.875Z,10.57
2022-12-22T04:02:19.274Z,11.00
2022-12-22T04:04:46.580Z,9.82
2022-12-22T04:07:13.809Z,10.10
2022-12-22T04:10:01.031Z,10.25
2022-12-22T04:12:46.920Z,10.68
2022-12-22T04:15:14.224Z,9.88
2022-12-22T04:17:41.505Z,10.15
2022-12-22T04:20:09.382Z,10.20
2022-12-22T04:22:36.688Z,10.38
2022-12-22T04:25:04.549Z,9.68
2022-12-22T04:27:31.842Z,10.02
2022-12-22T04:29:59.133Z,10.15
2022-12-22T04:32:26.430Z,10.18
2022-12-22T04:34:53.740Z,9.40
2022-12-22T04:37:21.019Z,10.40
2022-12-22T04:39:48.248Z,10.32
2022-12-22T04:42:15.564Z,9.95
2022-12-22T04:44:42.836Z,10.70
2022-12-22T04:47:10.267Z,9.90
2022-12-22T04:49:37.515Z,10.02
2022-12-22T04:52:04.963Z,9.75
2022-12-22T04:54:32.297Z,10.52
2022-12-22T04:56:59.938Z,9.65
2022-12-22T04:59:27.291Z,9.45
2022-12-22T05:01:54.923Z,9.02
2022-12-22T05:04:24.001Z,9.20
2022-12-22T05:06:51.463Z,8.95
2022-12-22T05:09:18.740Z,9.90
2022-12-22T05:11:46.025Z,9.73
2022-12-22T05:14:13.411Z,9.80
2022-12-22T05:16:40.683Z,9.02
2022-12-22T05:19:08.372Z,9.95
2022-12-22T05:21:35.713Z,9.07
2022-12-22T05:24:03.161Z,8.82
2022-12-22T05:26:30.376Z,8.77
2022-12-22T05:28:57.727Z,8.65
2022-12-22T05:31:26.548Z,7.95
2022-12-22T05:33:53.942Z,8.07
2022-12-22T05:36:21.238Z,8.65
2022-12-22T05:38:48.504Z,7.57
2022-12-22T05:41:15.947Z,7.45
2022-12-22T05:43:43.291Z,7.65
2022-12-22T05:46:12.345Z,6.72
2022-12-22T05:48:40.355Z,7.90
2022-12-22T05:51:11.234Z,13.32
2022-12-22T05:53:38.851Z,16.00
2022-12-22T05:56:07.058Z,15.25
2022-12-22T05:58:37.059Z,16.40
2022-12-22T06:01:04.630Z,16.17
2022-12-22T06:03:32.316Z,11.05
2022-12-22T06:06:00.404Z,13.77
2022-12-22T06:08:28.474Z,14.40
2022-12-22T06:10:57.096Z,15.73
2022-12-22T06:13:26.150Z,10.05
2022-12-22T06:15:53.560Z,10.75
2022-12-22T06:18:21.062Z,8.32
2022-12-22T06:20:50.766Z,9.30
2022-12-22T06:23:18.025Z,10.75
2022-12-22T06:25:57.506Z,8.63
2022-12-22T06:28:25.041Z,11.02
2022-12-22T06:30:52.560Z,8.55
2022-12-22T06:33:20.261Z,7.97
2022-12-22T06:35:50.895Z,9.32
2022-12-22T06:38:24.666Z,8.30
2022-12-22T06:40:51.972Z,8.65
2022-12-22T06:43:19.770Z,8.40
2022-12-22T06:45:47.020Z,9.63
2022-12-22T06:48:14.449Z,10.50
2022-12-22T06:50:41.742Z,6.95
2022-12-22T06:53:10.138Z,7.15
2022-12-22T06:55:38.032Z,8.15
2022-12-22T06:58:06.059Z,7.28
2022-12-22T07:00:33.770Z,7.35
2022-12-22T07:03:01.516Z,7.18
2022-12-22T07:05:31.664Z,6.65
2022-12-22T07:08:05.781Z,7.43
2022-12-22T07:10:54.124Z,7.70
2022-12-22T07:13:21.547Z,6.82
2022-12-22T07:15:57.263Z,6.25
2022-12-22T07:18:28.040Z,5.65
2022-12-22T07:20:55.419Z,5.63
2022-12-22T07:23:22.743Z,7.28
2022-12-22T07:25:50.029Z,5.35
2022-12-22T07:28:20.956Z,7.43
2022-12-22T07:30:49.334Z,6.72
2022-12-22T07:33:17.182Z,5.97
2022-12-22T07:35:44.643Z,4.85
2022-12-22T07:38:12.436Z,5.68
2022-12-22T07:40:42.506Z,5.20
2022-12-22T07:43:10.775Z,6.28
2022-12-22T07:45:38.120Z,5.35
2022-12-22T07:48:25.939Z,5.22
2022-12-22T07:50:53.694Z,4.63
2022-12-22T07:53:20.893Z,4.47
2022-12-22T07:55:48.164Z,4.65
2022-12-22T07:58:15.425Z,4.53
2022-12-22T08:00:42.695Z,4.60
2022-12-22T08:03:10.077Z,5.68
2022-12-22T08:05:38.645Z,4.75
2022-12-22T08:08:06.121Z,4.65
2022-12-22T08:10:33.383Z,5.45
2022-12-22T08:13:00.683Z,3.72
2022-12-22T08:15:28.030Z,4.78
2022-12-22T08:17:56.315Z,3.80
2022-12-22T08:20:23.557Z,3.45
2022-12-22T08:22:50.777Z,4.05
2022-12-22T08:25:18.420Z,5.05
2022-12-22T08:27:51.837Z,4.57
2022-12-22T08:30:19.474Z,3.88
2022-12-22T08:32:49.721Z,5.43
2022-12-22T08:35:17.524Z,3.85
2022-12-22T08:37:47.340Z,3.90
2022-12-22T08:40:24.880Z,3.72
2022-12-22T08:42:59.014Z,3.53
2022-12-22T08:45:26.528Z,3.50
2022-12-22T08:47:54.059Z,4.53
2022-12-22T08:50:21.391Z,4.15
2022-12-22T08:52:48.645Z,3.42
2022-12-22T08:55:16.090Z,4.63
2022-12-22T08:57:43.494Z,4.03
2022-12-22T09:00:13.101Z,3.75
2022-12-22T09:02:40.783Z,4.05
2022-12-22T09:05:08.548Z,4.88
2022-12-22T09:07:35.929Z,3.80
2022-12-22T09:10:03.293Z,5.35
2022-12-22T09:12:30.659Z,5.18
2022-12-22T09:14:58.602Z,3.53
2022-12-22T09:17:25.941Z,4.28
2022-12-22T09:19:53.304Z,2.90
2022-12-22T09:22:28.257Z,3.25
2022-12-22T09:24:56.417Z,3.10
2022-12-22T09:27:23.735Z,4.68
2022-12-22T09:29:50.974Z,3.78
2022-12-22T09:32:18.273Z,3.72
2022-12-22T09:34:45.587Z,2.92
2022-12-22T09:37:15.789Z,3.15
2022-12-22T09:39:43.497Z,4.03
2022-12-22T09:42:17.952Z,5.38
2022-12-22T09:44:50.241Z,2.65
2022-12-22T09:47:31.386Z,2.60
2022-12-22T09:49:59.394Z,3.10
2022-12-22T09:52:35.845Z,2.78
2022-12-22T09:55:06.037Z,3.95
2022-12-22T09:57:33.594Z,3.22
2022-12-22T10:00:15.008Z,2.92
2022-12-22T10:03:02.039Z,2.90
2022-12-22T10:05:45.488Z,2.50
2022-12-22T10:08:16.310Z,3.28
2022-12-22T10:10:43.696Z,3.25
2022-12-22T10:13:19.917Z,3.97
2022-12-22T10:15:48.151Z,2.83
2022-12-22T10:18:16.686Z,2.60
2022-12-22T10:20:46.878Z,2.85
2022-12-22T10:23:29.494Z,3.92
2022-12-22T10:26:28.150Z,3.15
2022-12-22T10:28:48.699Z,2.25
2022-12-22T10:31:25.837Z,3.83
2022-12-22T10:33:56.319Z,2.92
2022-12-22T10:36:32.343Z,2.95
2022-12-22T10:39:08.751Z,3.38
2022-12-22T10:41:37.426Z,3.13
2022-12-22T10:44:15.631Z,4.18
2022-12-22T10:46:53.656Z,3.00
2022-12-22T10:52:29.486Z,3.65
2022-12-22T10:55:20.159Z,3.78
2022-12-22T10:57:48.265Z,3.45
2022-12-22T11:00:32.205Z,4.82
2022-12-22T11:03:01.741Z,3.67
2022-12-22T11:05:31.217Z,5.10
2022-12-22T11:08:12.505Z,3.85
2022-12-22T11:10:59.737Z,4.03
2022-12-22T11:13:41.973Z,4.00
2022-12-22T11:16:21.332Z,3.90
2022-12-22T11:19:14.452Z,4.55
2022-12-22T11:22:10.306Z,3.78
2022-12-22T11:24:50.385Z,4.22
2022-12-22T11:27:27.805Z,4.60
2022-12-22T11:30:09.054Z,3.97
2022-12-22T11:32:36.241Z,4.65
2022-12-22T11:35:25.157Z,4.97
2022-12-22T11:38:13.961Z,4.07
2022-12-22T11:40:53.975Z,5.38
2022-12-22T11:43:24.261Z,5.03
2022-12-22T11:46:06.614Z,4.65
2022-12-22T11:48:45.785Z,3.80
2022-12-22T11:51:28.047Z,3.67
2022-12-22T11:54:15.248Z,4.07
2022-12-22T11:56:47.468Z,4.50
2022-12-22T11:59:41.883Z,4.45
2022-12-22T12:02:21.537Z,4.78
2022-12-22T12:05:00.871Z,4.15
2022-12-22T12:07:41.236Z,3.80
2022-12-22T12:10:21.184Z,4.72
2022-12-22T12:13:06.565Z,5.50
2022-12-22T12:16:01.693Z,4.30
2022-12-22T12:19:01.561Z,6.20
2022-12-22T12:21:50.863Z,4.88
2022-12-22T12:24:44.288Z,5.63
2022-12-22T12:27:49.775Z,5.35
2022-12-22T12:33:38.100Z,5.28
2022-12-22T12:36:20.490Z,5.45
2022-12-22T12:39:07.623Z,5.90
2022-12-22T12:41:58.130Z,4.63
2022-12-22T12:44:34.160Z,6.57
2022-12-22T12:47:08.296Z,5.80
2022-12-22T12:49:35.947Z,6.40
2022-12-22T12:52:08.022Z,5.85
2022-12-22T12:54:44.882Z,6.38
2022-12-22T12:57:48.999Z,6.13
2022-12-22T13:00:49.603Z,6.22
2022-12-22T13:04:01.696Z,5.78
2022-12-22T13:06:49.625Z,7.40
2022-12-22T13:12:53.970Z,6.65
2022-12-22T13:15:36.459Z,7.53
2022-12-22T13:18:28.580Z,6.70
2022-12-22T13:21:26.316Z,7.22
2022-12-22T13:26:45.350Z,6.57
2022-12-22T13:29:50.928Z,6.10
2022-12-22T13:32:23.899Z,8.60
2022-12-22T13:35:31.585Z,7.00
2022-12-22T13:37:59.818Z,5.75
2022-12-22T13:40:32.585Z,6.55
2022-12-22T13:43:09.905Z,6.07
2022-12-22T13:45:39.168Z,5.93
2022-12-22T13:48:21.187Z,7.10
2022-12-22T13:51:16.352Z,6.68
2022-12-22T13:56:42.873Z,6.85
2022-12-22T13:59:26.221Z,6.45
2022-12-22T14:02:00.237Z,5.95
2022-12-22T14:04:29.124Z,6.47
2022-12-22T14:06:56.676Z,6.15
2022-12-22T14:09:28.315Z,6.60
2022-12-22T14:12:01.405Z,5.90
2022-12-22T14:14:42.744Z,6.20
2022-12-22T14:17:32.649Z,7.65
2022-12-22T14:20:01.909Z,5.55
2022-12-22T14:22:34.785Z,5.70
2022-12-22T14:25:12.204Z,6.38
2022-12-22T14:27:44.141Z,6.07
2022-12-22T14:30:23.416Z,5.78
2022-12-22T14:32:55.955Z,6.38
2022-12-22T14:35:25.654Z,5.78
2022-12-22T14:38:20.701Z,5.57
2022-12-22T14:40:52.627Z,5.03
2022-12-22T14:43:30.837Z,6.05
2022-12-22T14:46:05.544Z,5.05
2022-12-22T14:48:38.444Z,6.03
2022-12-22T14:51:06.305Z,5.40
2022-12-22T14:53:40.069Z,7.35
2022-12-22T14:56:12.557Z,5.23
2022-12-22T14:58:42.208Z,5.55
2022-12-22T15:01:28.205Z,5.35
2022-12-22T15:04:06.180Z,4.70
2022-12-22T15:06:39.941Z,5.55
2022-12-22T15:09:55.133Z,5.03
2022-12-22T15:12:14.475Z,4.60
2022-12-22T15:14:42.340Z,5.45
2022-12-22T15:17:22.545Z,4.88
2022-12-22T15:19:51.226Z,4.70
2022-12-22T15:22:18.606Z,4.53
2022-12-22T15:24:47.116Z,4.82
2022-12-22T15:27:14.518Z,4.38
2022-12-22T15:29:41.797Z,4.53
2022-12-22T15:32:13.447Z,4.00
2022-12-22T15:34:41.427Z,3.80
2022-12-22T15:37:12.546Z,5.15
2022-12-22T15:39:40.458Z,3.80
2022-12-22T15:42:07.767Z,3.67
2022-12-22T15:44:38.737Z,3.75
2022-12-22T15:47:10.465Z,4.07
2022-12-22T15:49:38.097Z,3.75
2022-12-22T15:52:10.592Z,3.55
2022-12-22T15:54:37.902Z,3.80
2022-12-22T15:57:05.278Z,3.35
2022-12-22T15:59:32.576Z,3.75
2022-12-22T16:02:01.703Z,4.07
2022-12-22T16:04:30.199Z,3.63
2022-12-22T16:06:59.111Z,3.70
2022-12-22T16:09:32.439Z,3.58
2022-12-22T16:11:59.801Z,3.42
2022-12-22T16:14:27.280Z,3.38
2022-12-22T16:16:54.532Z,3.75
2022-12-22T16:19:21.912Z,3.60
2022-12-22T16:21:52.499Z,4.55
2022-12-22T16:24:34.205Z,3.53
2022-12-22T16:27:03.406Z,3.47
2022-12-22T16:29:31.026Z,3.88
2022-12-22T16:32:26.407Z,3.60
2022-12-22T16:37:21.375Z,3.72
2022-12-22T16:39:48.686Z,3.50
2022-12-22T16:45:05.976Z,4.68
2022-12-22T16:47:36.019Z,4.80
2022-12-22T16:50:03.787Z,5.53
2022-12-22T16:52:40.734Z,5.00
2022-12-22T16:55:19.835Z,5.45
2022-12-22T16:57:48.016Z,6.78
2022-12-22T17:00:21.379Z,6.88
2022-12-22T17:02:53.973Z,6.65
2022-12-22T17:05:42.099Z,9.25
2022-12-22T17:08:36.619Z,7.93
2022-12-22T17:11:10.843Z,7.70
2022-12-22T17:16:06.379Z,7.82
2022-12-22T17:18:34.739Z,8.35
2022-12-22T17:21:01.993Z,9.13
2022-12-22T17:23:38.043Z,8.75
2022-12-22T17:26:08.964Z,8.43
2022-12-22T17:28:37.473Z,8.90
2022-12-22T17:31:05.179Z,9.68
2022-12-22T17:33:32.593Z,8.60
2022-12-22T17:36:00.812Z,10.63
2022-12-22T17:38:28.932Z,10.18
2022-12-22T17:40:57.605Z,10.40
2022-12-22T17:43:25.053Z,9.50
2022-12-22T17:45:53.493Z,9.30
2022-12-22T17:48:20.839Z,9.38
2022-12-22T17:50:49.650Z,10.02
2022-12-22T17:53:21.275Z,10.30
2022-12-22T17:58:36.312Z,11.18
2022-12-22T18:01:03.852Z,8.90
2022-12-22T18:03:31.280Z,11.32
2022-12-22T18:05:59.888Z,9.32
2022-12-22T18:08:27.264Z,9.55
2022-12-22T18:10:54.884Z,10.98
2022-12-22T18:13:25.839Z,10.50
2022-12-22T18:15:54.979Z,9.45
2022-12-22T18:18:22.955Z,9.02
2022-12-22T18:21:06.651Z,10.52
2022-12-22T18:26:06.362Z,9.25
2022-12-22T18:28:33.654Z,9.45
2022-12-22T18:31:01.002Z,8.88
2022-12-22T18:33:28.274Z,8.70
2022-12-22T18:35:57.946Z,9.25
2022-12-22T18:38:31.865Z,9.15
2022-12-22T18:40:59.522Z,8.25
2022-12-22T18:43:26.870Z,9.57
2022-12-22T18:45:54.135Z,10.10
2022-12-22T18:48:21.387Z,8.15
2022-12-22T18:50:48.722Z,9.00
2022-12-22T18:53:30.722Z,9.10
2022-12-22T18:55:59.349Z,8.82
2022-12-22T18:58:27.302Z,8.43
2022-12-22T19:00:56.088Z,8.20
2022-12-22T19:03:26.600Z,8.20
2022-12-22T19:05:54.177Z,8.35
2022-12-22T19:08:24.071Z,7.68
2022-12-22T19:11:03.728Z,8.30
2022-12-22T19:13:38.931Z,8.32
2022-12-22T19:16:07.732Z,7.25
2022-12-22T19:18:35.064Z,6.93
2022-12-22T19:21:02.458Z,7.68
2022-12-22T19:23:29.717Z,6.65
2022-12-22T19:26:06.993Z,6.43
2022-12-22T19:28:41.029Z,6.72
2022-12-22T19:31:16.149Z,5.63
2022-12-22T19:33:44.184Z,6.35
2022-12-22T19:36:25.886Z,5.32
2022-12-22T19:39:03.301Z,6.43
2022-12-22T19:41:50.580Z,5.53
2022-12-22T19:44:26.684Z,5.72
2022-12-22T19:46:55.933Z,5.85
2022-12-22T19:49:27.245Z,5.78
2022-12-22T19:51:56.547Z,4.95
2022-12-22T19:54:23.988Z,6.53
2022-12-22T19:56:56.432Z,5.80
2022-12-22T19:59:42.741Z,5.25
2022-12-22T20:02:27.882Z,4.82
2022-12-22T20:04:56.459Z,5.68
2022-12-22T20:07:26.239Z,5.97
2022-12-22T20:09:53.986Z,6.10
2022-12-22T20:12:42.401Z,6.10
2022-12-22T20:15:20.311Z,6.93
2022-12-22T20:17:49.753Z,6.28
2022-12-22T20:20:19.306Z,6.65
2022-12-22T20:22:51.441Z,7.15
2022-12-22T20:25:24.296Z,6.50
2022-12-22T20:27:53.535Z,5.97
2022-12-22T20:30:31.057Z,5.32
2022-12-22T20:32:58.314Z,7.07
2022-12-22T20:35:26.087Z,5.13
2022-12-22T20:37:53.348Z,5.80
2022-12-22T20:40:27.066Z,7.03
2022-12-22T20:42:54.669Z,5.83
2022-12-22T20:45:21.991Z,6.15
2022-12-22T20:47:52.993Z,7.25
2022-12-22T20:50:26.819Z,7.88
2022-12-22T20:52:55.197Z,8.15
2022-12-22T20:55:25.262Z,6.25
2022-12-22T20:57:53.392Z,7.15
2022-12-22T21:00:28.969Z,7.93
2022-12-22T21:02:56.395Z,6.15
2022-12-22T21:05:23.728Z,7.15
2022-12-22T21:07:51.011Z,8.18
2022-12-22T21:10:23.673Z,8.93
2022-12-22T21:12:51.166Z,6.95
2022-12-22T21:15:21.661Z,8.30
2022-12-22T21:17:57.799Z,8.05
2022-12-22T21:20:28.157Z,6.85
2022-12-22T21:22:55.534Z,8.02
2022-12-22T21:25:24.262Z,8.00
2022-12-22T21:27:52.527Z,6.70
2022-12-22T21:30:25.320Z,6.03
2022-12-22T21:32:54.748Z,6.35
2022-12-22T21:35:28.804Z,5.97
2022-12-22T21:37:57.732Z,6.55
2022-12-22T21:40:30.974Z,7.60
2022-12-22T21:42:58.749Z,6.53
2022-12-22T21:45:31.515Z,6.13
2022-12-22T21:48:02.153Z,6.28
2022-12-22T21:50:32.082Z,8.27
2022-12-22T21:52:59.672Z,8.55
2022-12-22T21:55:33.140Z,11.05
2022-12-22T21:58:01.450Z,9.20
2022-12-22T22:00:30.009Z,7.90
2022-12-22T22:02:58.241Z,9.57
2022-12-22T22:05:30.521Z,13.70
2022-12-22T22:07:59.044Z,16.15
2022-12-22T22:10:33.241Z,13.52
2022-12-22T22:13:01.020Z,15.68
2022-12-22T22:15:29.653Z,14.27
2022-12-22T22:18:04.527Z,15.40
2022-12-22T22:20:34.659Z,18.92
2022-12-22T22:23:02.186Z,16.60
2022-12-22T22:25:29.402Z,20.10
2022-12-22T22:28:02.022Z,16.10
2022-12-22T22:30:29.611Z,16.95
2022-12-22T22:32:57.305Z,12.45
2022-12-22T22:35:26.877Z,14.50
2022-12-22T22:37:55.081Z,13.32
2022-12-22T22:40:23.279Z,14.45
2022-12-22T22:42:50.554Z,10.90
2022-12-22T22:45:23.777Z,10.27
2022-12-22T22:47:52.836Z,11.35
2022-12-22T22:50:23.549Z,11.20
2022-12-22T22:52:50.866Z,18.33
2022-12-22T22:55:18.198Z,9.05
2022-12-22T22:57:45.596Z,11.65
2022-12-22T23:00:15.204Z,9.65
2022-12-22T23:02:43.558Z,9.30
2022-12-22T23:05:16.965Z,8.48
2022-12-22T23:07:47.877Z,9.98
2022-12-22T23:10:15.298Z,8.15
2022-12-22T23:12:42.551Z,11.82
2022-12-22T23:15:10.031Z,9.27
2022-12-22T23:17:37.318Z,9.85
2022-12-22T23:20:05.139Z,11.07
2022-12-22T23:22:32.374Z,8.57
2022-12-22T23:24:59.659Z,7.53
2022-12-22T23:27:26.944Z,11.30
2022-12-22T23:29:54.940Z,8.85
2022-12-22T23:32:22.826Z,8.48
2022-12-22T23:34:50.135Z,6.32
2022-12-22T23:37:19.524Z,7.00
2022-12-22T23:39:47.247Z,5.95
2022-12-22T23:42:14.546Z,6.57
2022-12-22T23:44:41.784Z,5.97
2022-12-22T23:47:09.255Z,10.38
2022-12-22T23:49:36.623Z,8.80
2022-12-22T23:52:03.992Z,8.07
2022-12-22T23:54:31.354Z,10.80
2022-12-22T23:56:58.634Z,5.95
2022-12-22T23:59:25.883Z,9.02
